EAG1225 SBPA-SBGL
Flight info
| Callsign | EAG1225 |
|---|---|
| Flight time | N/A |
| Altitude | 37000 |
| Route | UBNUT UN857 AKNUB |
| Aircraft | B738/M-SDE2E3FGHIRWXY/LB1 |
Departure
| Time | 2026-05-09 02:53 |
|---|---|
| Airport | Porto Alegre-Salgado Filho International Airport (SBPA) |
Arrival
| Time | N/A |
|---|---|
| Airport | Rio Galeão – Tom Jobim International Airport (SBGL) |
| Time | Latitude | Longitude | Altitude | Speed | Heading |
|---|---|---|---|---|---|
| 2026-05-09 02:26 | -29.99102 | -51.17628 | 19 ft | 0 kts | 3° |
| 2026-05-09 02:42 | -29.99106 | -51.17628 | 19 ft | 3 kts | 2° |
| 2026-05-09 02:42 | -29.99132 | -51.17627 | 19 ft | 4 kts | 0° |
| 2026-05-09 02:42 | -29.99153 | -51.17634 | 19 ft | 4 kts | 36° |
| 2026-05-09 02:42 | -29.99167 | -51.17656 | 19 ft | 4 kts | 80° |
| 2026-05-09 02:43 | -29.99168 | -51.17680 | 19 ft | 1 kts | 91° |
| 2026-05-09 02:43 | -29.99168 | -51.17685 | 19 ft | 0 kts | 91° |
| 2026-05-09 02:49 | -29.99169 | -51.17658 | 19 ft | 8 kts | 91° |
| 2026-05-09 02:49 | -29.99173 | -51.17563 | 19 ft | 15 kts | 93° |
| 2026-05-09 02:50 | -29.99177 | -51.17442 | 19 ft | 15 kts | 96° |
| 2026-05-09 02:50 | -29.99248 | -51.17378 | 19 ft | 14 kts | 148° |
| 2026-05-09 02:50 | -29.99268 | -51.17272 | 19 ft | 16 kts | 89° |
| 2026-05-09 02:50 | -29.99269 | -51.17127 | 19 ft | 20 kts | 91° |
| 2026-05-09 02:51 | -29.99275 | -51.16947 | 19 ft | 24 kts | 92° |
| 2026-05-09 02:51 | -29.99279 | -51.16741 | 19 ft | 27 kts | 90° |
| 2026-05-09 02:51 | -29.99278 | -51.16514 | 19 ft | 29 kts | 93° |
| 2026-05-09 02:51 | -29.99282 | -51.16271 | 19 ft | 24 kts | 104° |
| 2026-05-09 02:52 | -29.99389 | -51.16231 | 19 ft | 17 kts | 184° |
| 2026-05-09 02:52 | -29.99475 | -51.16241 | 19 ft | 7 kts | 242° |
| 2026-05-09 02:52 | -29.99478 | -51.16263 | 19 ft | 0 kts | 268° |
| 2026-05-09 02:52 | -29.99477 | -51.16319 | 19 ft | 26 kts | 271° |
| 2026-05-09 02:53 | -29.99466 | -51.16858 | 19 ft | 105 kts | 271° |
| 2026-05-09 02:53 | -29.99446 | -51.17956 | 75 ft | 164 kts | 271° |
| 2026-05-09 02:53 | -29.99419 | -51.19351 | 645 ft | 186 kts | 271° |
| 2026-05-09 02:53 | -29.99398 | -51.20871 | 1578 ft | 186 kts | 271° |
| 2026-05-09 02:54 | -29.99367 | -51.22343 | 2508 ft | 186 kts | 273° |
| 2026-05-09 02:54 | -29.99337 | -51.23882 | 3120 ft | 197 kts | 275° |
| 2026-05-09 02:54 | -29.99299 | -51.25475 | 4017 ft | 196 kts | 274° |
| 2026-05-09 02:54 | -29.99118 | -51.27044 | 4822 ft | 200 kts | 293° |
| 2026-05-09 02:55 | -29.98241 | -51.28184 | 6038 ft | 193 kts | 327° |
| 2026-05-09 02:55 | -29.96863 | -51.28449 | 6829 ft | 215 kts | 356° |
| 2026-05-09 02:55 | -29.95301 | -51.28301 | 7341 ft | 234 kts | 356° |
| 2026-05-09 02:55 | -29.93611 | -51.28147 | 7841 ft | 252 kts | 356° |
| 2026-05-09 02:56 | -29.91821 | -51.28005 | 8531 ft | 261 kts | 356° |
| 2026-05-09 02:56 | -29.89999 | -51.27889 | 9388 ft | 263 kts | 355° |
| 2026-05-09 02:56 | -29.88161 | -51.27791 | 10253 ft | 265 kts | 355° |
| 2026-05-09 02:56 | -29.86325 | -51.27701 | 11047 ft | 270 kts | 355° |
| 2026-05-09 02:57 | -29.84411 | -51.27615 | 11660 ft | 281 kts | 354° |
| 2026-05-09 02:57 | -29.82395 | -51.27530 | 12062 ft | 299 kts | 354° |
| 2026-05-09 02:57 | -29.80251 | -51.27446 | 12390 ft | 317 kts | 354° |
| 2026-05-09 02:57 | -29.77979 | -51.27362 | 12653 ft | 336 kts | 354° |
| 2026-05-09 02:58 | -29.75586 | -51.27275 | 12993 ft | 349 kts | 354° |
| 2026-05-09 02:58 | -29.73140 | -51.27190 | 13631 ft | 353 kts | 353° |
| 2026-05-09 02:58 | -29.70671 | -51.26797 | 14386 ft | 369 kts | 7° |
| 2026-05-09 02:58 | -29.68293 | -51.25474 | 15066 ft | 395 kts | 24° |
| 2026-05-09 02:59 | -29.66234 | -51.23238 | 15700 ft | 422 kts | 41° |
| 2026-05-09 02:59 | -29.64723 | -51.20284 | 16280 ft | 447 kts | 57° |
| 2026-05-09 02:59 | -29.63782 | -51.16756 | 16842 ft | 463 kts | 66° |
| 2026-05-09 02:59 | -29.62955 | -51.13231 | 17354 ft | 461 kts | 62° |
| 2026-05-09 03:00 | -29.61797 | -51.09837 | 17870 ft | 451 kts | 53° |
| 2026-05-09 03:00 | -29.60356 | -51.06655 | 18382 ft | 447 kts | 49° |
| 2026-05-09 03:00 | -29.58848 | -51.03526 | 18872 ft | 450 kts | 49° |
| 2026-05-09 03:00 | -29.57379 | -51.00326 | 19275 ft | 455 kts | 50° |
| 2026-05-09 03:01 | -29.55917 | -50.97069 | 19667 ft | 459 kts | 50° |
| 2026-05-09 03:01 | -29.54450 | -50.93793 | 20052 ft | 463 kts | 50° |
| 2026-05-09 03:01 | -29.52972 | -50.90488 | 20429 ft | 466 kts | 50° |
| 2026-05-09 03:01 | -29.51988 | -50.88291 | 20672 ft | 468 kts | 50° |
| 2026-05-09 03:02 | -29.50489 | -50.84953 | 21029 ft | 472 kts | 50° |
| 2026-05-09 03:02 | -29.48986 | -50.81608 | 21455 ft | 473 kts | 50° |
| 2026-05-09 03:02 | -29.47470 | -50.78236 | 21804 ft | 477 kts | 50° |
| 2026-05-09 03:02 | -29.45940 | -50.74837 | 22146 ft | 480 kts | 50° |
| 2026-05-09 03:03 | -29.44407 | -50.71432 | 22481 ft | 483 kts | 50° |
| 2026-05-09 03:03 | -29.42862 | -50.67994 | 22807 ft | 487 kts | 50° |
| 2026-05-09 03:03 | -29.41327 | -50.64513 | 23122 ft | 490 kts | 50° |
| 2026-05-09 03:03 | -29.39765 | -50.61021 | 23432 ft | 492 kts | 50° |
| 2026-05-09 03:04 | -29.38191 | -50.57525 | 23730 ft | 495 kts | 50° |
| 2026-05-09 03:04 | -29.36605 | -50.54016 | 24020 ft | 497 kts | 50° |
| 2026-05-09 03:04 | -29.35007 | -50.50486 | 24301 ft | 500 kts | 50° |
| 2026-05-09 03:04 | -29.33397 | -50.46934 | 24617 ft | 502 kts | 50° |
| 2026-05-09 03:05 | -29.31793 | -50.43396 | 24923 ft | 503 kts | 50° |
| 2026-05-09 03:05 | -29.30112 | -50.39886 | 25213 ft | 496 kts | 45° |
| 2026-05-09 03:05 | -29.28131 | -50.36704 | 25497 ft | 483 kts | 37° |
| 2026-05-09 03:05 | -29.25879 | -50.33935 | 25739 ft | 471 kts | 30° |
| 2026-05-09 03:06 | -29.23411 | -50.31494 | 25962 ft | 465 kts | 25° |
| 2026-05-09 03:06 | -29.20863 | -50.29249 | 26234 ft | 462 kts | 23° |
| 2026-05-09 03:06 | -29.18305 | -50.27110 | 26489 ft | 462 kts | 23° |
| 2026-05-09 03:06 | -29.15710 | -50.24933 | 26845 ft | 461 kts | 23° |
| 2026-05-09 03:07 | -29.13133 | -50.22757 | 27146 ft | 462 kts | 23° |
| 2026-05-09 03:07 | -29.10537 | -50.20559 | 27438 ft | 462 kts | 23° |
| 2026-05-09 03:07 | -29.07958 | -50.18371 | 27769 ft | 461 kts | 23° |
| 2026-05-09 03:07 | -29.05381 | -50.16183 | 28092 ft | 461 kts | 23° |
| 2026-05-09 03:08 | -29.02826 | -50.14014 | 28391 ft | 461 kts | 23° |
| 2026-05-09 03:08 | -29.00230 | -50.11808 | 28696 ft | 462 kts | 24° |
| 2026-05-09 03:08 | -28.97677 | -50.09624 | 29195 ft | 457 kts | 24° |
| 2026-05-09 03:08 | -28.95134 | -50.07454 | 29582 ft | 455 kts | 24° |
| 2026-05-09 03:09 | -28.92604 | -50.05288 | 29930 ft | 454 kts | 24° |
| 2026-05-09 03:09 | -28.90080 | -50.03142 | 30373 ft | 451 kts | 23° |
| 2026-05-09 03:09 | -28.87566 | -50.01010 | 30769 ft | 449 kts | 23° |
| 2026-05-09 03:09 | -28.85063 | -49.98893 | 31099 ft | 448 kts | 23° |
| 2026-05-09 03:10 | -28.82580 | -49.96795 | 31367 ft | 449 kts | 24° |
| 2026-05-09 03:10 | -28.80027 | -49.94639 | 31664 ft | 450 kts | 24° |
| 2026-05-09 03:10 | -28.77542 | -49.92541 | 31947 ft | 450 kts | 24° |
| 2026-05-09 03:10 | -28.75026 | -49.90418 | 32233 ft | 451 kts | 24° |
| 2026-05-09 03:11 | -28.72522 | -49.88244 | 32515 ft | 457 kts | 28° |
| 2026-05-09 03:11 | -28.70182 | -49.85710 | 32800 ft | 469 kts | 36° |
| 2026-05-09 03:11 | -28.68101 | -49.82788 | 33092 ft | 482 kts | 43° |
| 2026-05-09 03:11 | -28.66262 | -49.79564 | 33396 ft | 488 kts | 48° |
| 2026-05-09 03:12 | -28.64554 | -49.76207 | 33702 ft | 491 kts | 50° |
| 2026-05-09 03:12 | -28.62884 | -49.72816 | 33996 ft | 490 kts | 50° |
| 2026-05-09 03:12 | -28.61204 | -49.69439 | 34289 ft | 490 kts | 50° |
| 2026-05-09 03:12 | -28.59533 | -49.66104 | 34579 ft | 489 kts | 50° |
| 2026-05-09 03:13 | -28.56152 | -49.59395 | 35149 ft | 488 kts | 51° |
| 2026-05-09 03:13 | -28.54458 | -49.56045 | 35428 ft | 488 kts | 51° |
| 2026-05-09 03:13 | -28.52770 | -49.52716 | 35810 ft | 484 kts | 51° |
| 2026-05-09 03:14 | -28.51102 | -49.49391 | 36144 ft | 483 kts | 52° |
| 2026-05-09 03:14 | -28.49440 | -49.46076 | 36353 ft | 483 kts | 52° |
| 2026-05-09 03:14 | -28.47768 | -49.42757 | 36600 ft | 483 kts | 52° |
| 2026-05-09 03:14 | -28.46098 | -49.39453 | 36857 ft | 482 kts | 52° |
| 2026-05-09 03:15 | -28.42767 | -49.32846 | 36924 ft | 485 kts | 53° |
| 2026-05-09 03:15 | -28.39406 | -49.26215 | 36922 ft | 482 kts | 52° |
| 2026-05-09 03:16 | -28.36046 | -49.19627 | 36920 ft | 481 kts | 52° |
| 2026-05-09 03:16 | -28.32680 | -49.13043 | 36919 ft | 482 kts | 52° |
| 2026-05-09 03:17 | -28.29310 | -49.06475 | 36915 ft | 481 kts | 51° |
| 2026-05-09 03:17 | -28.25429 | -49.00404 | 36912 ft | 469 kts | 41° |
| 2026-05-09 03:18 | -28.21008 | -48.95047 | 36913 ft | 470 kts | 39° |
| 2026-05-09 03:18 | -28.16616 | -48.89534 | 36912 ft | 470 kts | 40° |
| 2026-05-09 03:19 | -28.12241 | -48.84035 | 36909 ft | 467 kts | 40° |
| 2026-05-09 03:19 | -28.07909 | -48.78621 | 36905 ft | 460 kts | 40° |
| 2026-05-09 03:20 | -28.03611 | -48.73261 | 36905 ft | 460 kts | 40° |
| 2026-05-09 03:20 | -27.99291 | -48.67882 | 36905 ft | 463 kts | 40° |
| 2026-05-09 03:21 | -27.95005 | -48.62508 | 36906 ft | 463 kts | 40° |
| 2026-05-09 03:21 | -27.90691 | -48.57124 | 36905 ft | 462 kts | 40° |
| 2026-05-09 03:22 | -27.86377 | -48.51737 | 36905 ft | 462 kts | 40° |
| 2026-05-09 03:22 | -27.82036 | -48.46355 | 36905 ft | 466 kts | 40° |
| 2026-05-09 03:23 | -27.77679 | -48.40966 | 36905 ft | 466 kts | 40° |
| 2026-05-09 03:23 | -27.73306 | -48.35562 | 36905 ft | 463 kts | 40° |
| 2026-05-09 03:24 | -27.68959 | -48.30191 | 36905 ft | 463 kts | 40° |
| 2026-05-09 03:24 | -27.64596 | -48.24816 | 36905 ft | 464 kts | 40° |
| 2026-05-09 03:25 | -27.60239 | -48.19449 | 36905 ft | 465 kts | 40° |
| 2026-05-09 03:25 | -27.55923 | -48.14100 | 36905 ft | 464 kts | 40° |
| 2026-05-09 03:26 | -27.51558 | -48.08736 | 36903 ft | 464 kts | 40° |
| 2026-05-09 03:26 | -27.47185 | -48.03374 | 36905 ft | 464 kts | 40° |
| 2026-05-09 03:27 | -27.42798 | -47.98001 | 36905 ft | 465 kts | 40° |
| 2026-05-09 03:27 | -27.38445 | -47.92671 | 36905 ft | 465 kts | 40° |
| 2026-05-09 03:28 | -27.34063 | -47.87364 | 36905 ft | 464 kts | 39° |
| 2026-05-09 03:28 | -27.29649 | -47.82032 | 36905 ft | 465 kts | 39° |
| 2026-05-09 03:29 | -27.25187 | -47.76644 | 36905 ft | 465 kts | 39° |
| 2026-05-09 03:29 | -27.20786 | -47.71334 | 36905 ft | 463 kts | 39° |
| 2026-05-09 03:30 | -27.16433 | -47.66087 | 36905 ft | 461 kts | 39° |
| 2026-05-09 03:30 | -27.12063 | -47.60789 | 36905 ft | 463 kts | 39° |
| 2026-05-09 03:31 | -27.07695 | -47.55491 | 36905 ft | 462 kts | 39° |
| 2026-05-09 03:31 | -27.03304 | -47.50204 | 36906 ft | 463 kts | 39° |
| 2026-05-09 03:32 | -26.98899 | -47.44921 | 36905 ft | 463 kts | 39° |
| 2026-05-09 03:32 | -26.94522 | -47.39677 | 36905 ft | 463 kts | 39° |
| 2026-05-09 03:33 | -26.90115 | -47.34403 | 36906 ft | 464 kts | 39° |
| 2026-05-09 03:33 | -26.85708 | -47.29116 | 36905 ft | 464 kts | 39° |
| 2026-05-09 03:34 | -26.81292 | -47.23843 | 36905 ft | 464 kts | 39° |
| 2026-05-09 03:34 | -26.76869 | -47.18571 | 36905 ft | 464 kts | 39° |
| 2026-05-09 03:35 | -26.72447 | -47.13304 | 36905 ft | 464 kts | 39° |
| 2026-05-09 03:35 | -26.68047 | -47.08074 | 36905 ft | 464 kts | 39° |
| 2026-05-09 03:36 | -26.63605 | -47.02812 | 36905 ft | 464 kts | 39° |
| 2026-05-09 03:36 | -26.59171 | -46.97560 | 36905 ft | 465 kts | 39° |
| 2026-05-09 03:37 | -26.54726 | -46.92318 | 36905 ft | 464 kts | 39° |
| 2026-05-09 03:37 | -26.50273 | -46.87090 | 36906 ft | 464 kts | 39° |
| 2026-05-09 03:38 | -26.47502 | -46.83842 | 36905 ft | 464 kts | 39° |
| 2026-05-09 03:38 | -26.46471 | -46.82634 | 36905 ft | 464 kts | 39° |
| 2026-05-09 03:39 | -26.42074 | -46.77484 | 36905 ft | 465 kts | 39° |
| 2026-05-09 03:39 | -26.37634 | -46.72285 | 36905 ft | 465 kts | 39° |
| 2026-05-09 03:40 | -26.33167 | -46.67073 | 36905 ft | 465 kts | 39° |
| 2026-05-09 03:40 | -26.28689 | -46.61853 | 36905 ft | 464 kts | 39° |
| 2026-05-09 03:41 | -26.24220 | -46.56649 | 36905 ft | 464 kts | 39° |
| 2026-05-09 03:41 | -26.19779 | -46.51484 | 36905 ft | 464 kts | 39° |
| 2026-05-09 03:42 | -26.15317 | -46.46297 | 36904 ft | 464 kts | 39° |
| 2026-05-09 03:42 | -26.10862 | -46.41084 | 36903 ft | 464 kts | 39° |
| 2026-05-09 03:43 | -26.06406 | -46.35897 | 36899 ft | 463 kts | 39° |
| 2026-05-09 03:43 | -26.01944 | -46.30717 | 36898 ft | 463 kts | 39° |
| 2026-05-09 03:44 | -25.97492 | -46.25556 | 36897 ft | 462 kts | 39° |
| 2026-05-09 03:44 | -25.93045 | -46.20407 | 36897 ft | 462 kts | 39° |
| 2026-05-09 03:45 | -25.88616 | -46.15286 | 36897 ft | 462 kts | 39° |
| 2026-05-09 03:45 | -25.84167 | -46.10122 | 36896 ft | 462 kts | 39° |
| 2026-05-09 03:46 | -25.80454 | -46.05840 | 36896 ft | 463 kts | 39° |
| 2026-05-09 03:46 | -25.75983 | -46.00695 | 36895 ft | 463 kts | 39° |
| 2026-05-09 03:47 | -25.71523 | -45.95568 | 36892 ft | 462 kts | 39° |
| 2026-05-09 03:47 | -25.67048 | -45.90429 | 36890 ft | 463 kts | 39° |
| 2026-05-09 03:48 | -25.62570 | -45.85292 | 36888 ft | 462 kts | 39° |
| 2026-05-09 03:48 | -25.58089 | -45.80168 | 36888 ft | 462 kts | 39° |
| 2026-05-09 03:49 | -25.53609 | -45.75051 | 36888 ft | 462 kts | 39° |
| 2026-05-09 03:49 | -25.49126 | -45.69935 | 36888 ft | 462 kts | 39° |
| 2026-05-09 03:50 | -25.44642 | -45.64824 | 36888 ft | 462 kts | 38° |
| 2026-05-09 03:50 | -25.40165 | -45.59706 | 36886 ft | 463 kts | 39° |
| 2026-05-09 03:51 | -25.35722 | -45.54617 | 36888 ft | 463 kts | 39° |
| 2026-05-09 03:51 | -25.31238 | -45.49502 | 36888 ft | 462 kts | 39° |
| 2026-05-09 03:52 | -25.26751 | -45.44396 | 36888 ft | 462 kts | 38° |
| 2026-05-09 03:52 | -25.22272 | -45.39305 | 36888 ft | 462 kts | 38° |
| 2026-05-09 03:53 | -25.17780 | -45.34206 | 36888 ft | 462 kts | 38° |
| 2026-05-09 03:53 | -25.13324 | -45.29155 | 36888 ft | 462 kts | 38° |
| 2026-05-09 03:54 | -25.08818 | -45.24051 | 36909 ft | 464 kts | 39° |
| 2026-05-09 03:54 | -25.04318 | -45.18961 | 36920 ft | 464 kts | 39° |
| 2026-05-09 03:55 | -25.02059 | -45.16408 | 36917 ft | 463 kts | 39° |
| 2026-05-09 03:56 | -25.01539 | -45.15821 | 36917 ft | 463 kts | 39° |
| 2026-05-09 03:57 | -24.97497 | -45.11256 | 36915 ft | 463 kts | 39° |
| 2026-05-09 03:57 | -24.93016 | -45.06201 | 36920 ft | 464 kts | 39° |
| 2026-05-09 03:58 | -24.88478 | -45.01088 | 36921 ft | 464 kts | 39° |
| 2026-05-09 03:58 | -24.84003 | -44.96051 | 36897 ft | 462 kts | 38° |
| 2026-05-09 03:59 | -24.79495 | -44.90982 | 36882 ft | 462 kts | 38° |
| 2026-05-09 03:59 | -24.74993 | -44.85926 | 36882 ft | 462 kts | 38° |
| 2026-05-09 04:00 | -24.70510 | -44.80881 | 36881 ft | 462 kts | 38° |
| 2026-05-09 04:00 | -24.66017 | -44.75836 | 36876 ft | 462 kts | 38° |
| 2026-05-09 04:01 | -24.61500 | -44.70785 | 36876 ft | 462 kts | 38° |
| 2026-05-09 04:01 | -24.56990 | -44.65750 | 36876 ft | 463 kts | 38° |
| 2026-05-09 04:02 | -24.52379 | -44.60855 | 36875 ft | 456 kts | 31° |
| 2026-05-09 04:02 | -24.47007 | -44.57404 | 36877 ft | 442 kts | 15° |
| 2026-05-09 04:03 | -24.41242 | -44.55122 | 36876 ft | 439 kts | 13° |
| 2026-05-09 04:03 | -24.35512 | -44.52907 | 36876 ft | 439 kts | 13° |
| 2026-05-09 04:04 | -24.29737 | -44.50672 | 36876 ft | 440 kts | 13° |
| 2026-05-09 04:04 | -24.23970 | -44.48439 | 36876 ft | 440 kts | 13° |
| 2026-05-09 04:05 | -24.18195 | -44.46205 | 36876 ft | 440 kts | 13° |
| 2026-05-09 04:05 | -24.12426 | -44.43970 | 36876 ft | 440 kts | 13° |
| 2026-05-09 04:06 | -24.06647 | -44.41726 | 36876 ft | 440 kts | 13° |
| 2026-05-09 04:06 | -24.00878 | -44.39493 | 36876 ft | 440 kts | 13° |
| 2026-05-09 04:07 | -23.97991 | -44.38377 | 36773 ft | 442 kts | 13° |
| 2026-05-09 04:07 | -23.95090 | -44.37256 | 36336 ft | 441 kts | 13° |
| 2026-05-09 04:07 | -23.92220 | -44.36148 | 35610 ft | 441 kts | 13° |
| 2026-05-09 04:07 | -23.89320 | -44.35029 | 34868 ft | 443 kts | 13° |
| 2026-05-09 04:08 | -23.86410 | -44.33907 | 34120 ft | 444 kts | 13° |
| 2026-05-09 04:08 | -23.83498 | -44.32785 | 33363 ft | 445 kts | 13° |
| 2026-05-09 04:08 | -23.80572 | -44.31658 | 32590 ft | 447 kts | 13° |
| 2026-05-09 04:08 | -23.77629 | -44.30525 | 31791 ft | 449 kts | 13° |
| 2026-05-09 04:09 | -23.74687 | -44.29393 | 30976 ft | 451 kts | 13° |
| 2026-05-09 04:09 | -23.71716 | -44.28250 | 30103 ft | 454 kts | 13° |
| 2026-05-09 04:09 | -23.68716 | -44.27097 | 29265 ft | 455 kts | 13° |
| 2026-05-09 04:09 | -23.67752 | -44.26726 | 28997 ft | 456 kts | 13° |
| 2026-05-09 04:10 | -23.67153 | -44.26496 | 28830 ft | 456 kts | 13° |